createdAt,value
2023-01-17T00:01:31.456Z,24.97
2023-01-17T00:04:19.003Z,23.23
2023-01-17T00:07:06.780Z,23.03
2023-01-17T00:09:54.111Z,23.60
2023-01-17T00:12:21.721Z,22.50
2023-01-17T00:14:49.524Z,22.33
2023-01-17T00:17:16.897Z,23.20
2023-01-17T00:20:04.239Z,22.20
2023-01-17T00:22:52.238Z,21.37
2023-01-17T00:25:40.868Z,21.97
2023-01-17T00:28:09.040Z,21.03
2023-01-17T00:30:37.100Z,20.03
2023-01-17T00:33:05.249Z,20.67
2023-01-17T00:35:33.946Z,21.20
2023-01-17T00:38:09.221Z,19.77
2023-01-17T00:40:39.305Z,20.58
2023-01-17T00:43:26.967Z,21.43
2023-01-17T00:46:14.465Z,21.10
2023-01-17T00:49:02.900Z,23.43
2023-01-17T00:51:50.858Z,22.93
2023-01-17T00:54:38.349Z,24.37
2023-01-17T00:57:25.895Z,22.30
2023-01-17T01:00:13.186Z,23.07
2023-01-17T01:03:00.469Z,23.27
2023-01-17T01:05:47.777Z,23.60
2023-01-17T01:08:36.890Z,23.37
2023-01-17T01:11:25.848Z,23.20
2023-01-17T01:14:13.174Z,24.03
2023-01-17T01:17:00.658Z,22.93
2023-01-17T01:19:48.181Z,23.07
2023-01-17T01:22:35.660Z,23.47
2023-01-17T01:25:23.463Z,25.77
2023-01-17T01:28:10.810Z,25.80
2023-01-17T01:30:58.102Z,25.53
2023-01-17T01:33:26.062Z,24.93
2023-01-17T01:35:54.327Z,22.50
2023-01-17T01:38:23.296Z,24.43
2023-01-17T01:40:52.881Z,25.60
2023-01-17T01:43:22.034Z,25.27
2023-01-17T01:45:53.238Z,25.73
2023-01-17T01:48:28.056Z,25.30
2023-01-17T01:50:55.695Z,25.05
2023-01-17T01:53:23.758Z,25.97
2023-01-17T01:55:52.529Z,25.20
2023-01-17T01:58:22.347Z,25.10
2023-01-17T02:00:50.227Z,25.00
2023-01-17T02:03:21.801Z,23.13
2023-01-17T02:05:49.457Z,23.63
2023-01-17T02:08:18.302Z,22.47
2023-01-17T02:10:45.719Z,24.20
2023-01-17T02:13:13.644Z,22.57
2023-01-17T02:16:01.024Z,23.00
2023-01-17T02:18:37.984Z,23.70
2023-01-17T02:21:25.161Z,25.03
2023-01-17T02:24:12.398Z,24.03
2023-01-17T02:26:51.507Z,24.27
2023-01-17T02:29:31.913Z,23.77
2023-01-17T02:32:03.447Z,26.57
2023-01-17T02:34:50.697Z,24.57
2023-01-17T02:37:24.141Z,24.03
2023-01-17T02:39:57.682Z,23.40
2023-01-17T02:42:28.191Z,24.30
2023-01-17T02:44:55.622Z,23.37
2023-01-17T02:47:42.887Z,20.43
2023-01-17T02:50:13.426Z,19.83
2023-01-17T02:52:50.318Z,21.97
2023-01-17T02:55:23.291Z,21.20
2023-01-17T02:58:10.615Z,20.77
2023-01-17T03:00:58.460Z,22.90
2023-01-17T03:03:45.826Z,21.27
2023-01-17T03:06:16.077Z,22.03
2023-01-17T03:08:45.368Z,21.90
2023-01-17T03:11:13.595Z,23.57
2023-01-17T03:13:41.532Z,23.17
2023-01-17T03:16:12.780Z,22.30
2023-01-17T03:18:40.529Z,21.97
2023-01-17T03:21:07.983Z,21.13
2023-01-17T03:23:35.539Z,22.57
2023-01-17T03:26:03.042Z,21.53
2023-01-17T03:28:30.589Z,19.80
2023-01-17T03:30:58.053Z,19.60
2023-01-17T03:33:25.654Z,19.47
2023-01-17T03:35:54.693Z,20.53
2023-01-17T03:38:22.151Z,19.10
2023-01-17T03:40:49.655Z,19.63
2023-01-17T03:43:17.071Z,20.07
2023-01-17T03:45:44.449Z,19.27
2023-01-17T03:48:12.112Z,18.07
2023-01-17T03:50:39.582Z,16.87
2023-01-17T03:53:07.062Z,20.17
2023-01-17T03:55:34.607Z,16.77
2023-01-17T03:58:02.226Z,17.70
2023-01-17T04:00:29.690Z,16.57
2023-01-17T04:02:57.196Z,17.00
2023-01-17T04:05:24.589Z,17.03
2023-01-17T04:07:51.972Z,16.53
2023-01-17T04:10:19.489Z,17.00
2023-01-17T04:12:47.016Z,16.33
2023-01-17T04:15:14.386Z,17.10
2023-01-17T04:17:42.551Z,17.53
2023-01-17T04:20:17.503Z,17.73
2023-01-17T04:22:44.922Z,17.08
2023-01-17T04:25:12.516Z,17.50
2023-01-17T04:27:39.984Z,18.27
2023-01-17T04:30:07.823Z,16.37
2023-01-17T04:32:35.281Z,16.57
2023-01-17T04:35:03.212Z,16.53
2023-01-17T04:37:30.734Z,16.30
2023-01-17T04:39:58.190Z,16.03
2023-01-17T04:42:25.631Z,17.10
2023-01-17T04:44:53.013Z,15.83
2023-01-17T04:47:20.412Z,16.77
2023-01-17T04:49:47.933Z,16.33
2023-01-17T04:52:18.768Z,16.37
2023-01-17T04:54:48.520Z,15.33
2023-01-17T04:57:16.667Z,16.93
2023-01-17T04:59:44.522Z,17.70
2023-01-17T05:02:12.412Z,17.00
2023-01-17T05:04:39.975Z,17.30
2023-01-17T05:07:07.649Z,18.27
2023-01-17T05:09:35.257Z,18.17
2023-01-17T05:12:02.628Z,18.00
2023-01-17T05:14:30.012Z,17.90
2023-01-17T05:16:57.836Z,17.77
2023-01-17T05:19:25.966Z,18.03
2023-01-17T05:21:53.677Z,18.90
2023-01-17T05:24:21.787Z,17.07
2023-01-17T05:26:54.855Z,17.33
2023-01-17T05:29:22.537Z,18.57
2023-01-17T05:31:49.932Z,19.27
2023-01-17T05:34:17.594Z,18.23
2023-01-17T05:36:45.291Z,19.30
2023-01-17T05:39:12.763Z,18.83
2023-01-17T05:41:40.104Z,19.03
2023-01-17T05:44:07.600Z,17.83
2023-01-17T05:46:35.155Z,18.67
2023-01-17T05:49:02.595Z,18.70
2023-01-17T05:51:29.924Z,19.60
2023-01-17T05:53:57.417Z,19.57
2023-01-17T05:56:24.840Z,19.13
2023-01-17T05:58:52.245Z,19.43
2023-01-17T06:01:19.798Z,20.77
2023-01-17T06:03:47.312Z,22.47
2023-01-17T06:06:15.298Z,19.97
2023-01-17T06:08:42.740Z,19.93
2023-01-17T06:11:10.111Z,19.07
2023-01-17T06:13:37.744Z,19.70
2023-01-17T06:16:05.417Z,18.50
2023-01-17T06:18:33.008Z,16.37
2023-01-17T06:21:00.494Z,14.23
2023-01-17T06:23:28.608Z,13.40
2023-01-17T06:25:56.067Z,14.93
2023-01-17T06:28:23.817Z,14.13
2023-01-17T06:30:51.491Z,14.00
2023-01-17T06:33:18.887Z,15.27
2023-01-17T06:35:54.030Z,14.23
2023-01-17T06:38:21.827Z,15.48
2023-01-17T06:40:49.329Z,15.93
2023-01-17T06:43:16.788Z,16.93
2023-01-17T06:45:44.746Z,16.37
2023-01-17T06:48:12.211Z,16.93
2023-01-17T06:50:39.850Z,17.63
2023-01-17T06:53:07.820Z,17.73
2023-01-17T06:55:35.889Z,19.17
2023-01-17T06:58:03.365Z,19.27
2023-01-17T07:00:31.592Z,19.93
2023-01-17T07:02:59.049Z,20.40
2023-01-17T07:05:27.437Z,20.70
2023-01-17T07:07:55.231Z,23.17
2023-01-17T07:10:23.740Z,22.53
2023-01-17T07:12:51.621Z,22.73
2023-01-17T07:15:19.099Z,23.80
2023-01-17T07:17:46.574Z,22.13
2023-01-17T07:20:17.257Z,24.30
2023-01-17T07:22:46.273Z,22.80
2023-01-17T07:25:14.092Z,22.27
2023-01-17T07:27:41.505Z,24.13
2023-01-17T07:30:09.623Z,22.37
2023-01-17T07:32:37.471Z,24.70
2023-01-17T07:35:05.002Z,25.13
2023-01-17T07:37:32.470Z,26.43
2023-01-17T07:40:02.588Z,25.17
2023-01-17T07:42:30.037Z,25.70
2023-01-17T07:44:57.435Z,25.53
2023-01-17T07:47:25.032Z,25.80
2023-01-17T07:49:52.478Z,26.50
2023-01-17T07:52:19.916Z,26.70
2023-01-17T07:54:47.415Z,28.57
2023-01-17T07:57:14.959Z,25.87
2023-01-17T07:59:42.284Z,26.90
2023-01-17T08:02:17.866Z,25.70
2023-01-17T08:04:45.359Z,29.20
2023-01-17T08:07:14.050Z,26.57
2023-01-17T08:09:42.582Z,28.03
2023-01-17T08:12:10.838Z,27.07
2023-01-17T08:14:38.358Z,25.87
2023-01-17T08:17:06.622Z,28.97
2023-01-17T08:19:34.070Z,28.87
2023-01-17T08:22:01.564Z,29.23
2023-01-17T08:24:29.008Z,27.47
2023-01-17T08:26:56.520Z,27.20
2023-01-17T08:29:24.509Z,27.20
2023-01-17T08:31:52.196Z,26.90
2023-01-17T08:34:19.674Z,26.47
2023-01-17T08:36:48.097Z,26.17
2023-01-17T08:39:15.861Z,25.07
2023-01-17T08:41:43.266Z,27.43
2023-01-17T08:44:11.295Z,26.67
2023-01-17T08:46:39.316Z,27.53
2023-01-17T08:49:06.754Z,25.83
2023-01-17T08:51:34.973Z,25.20
2023-01-17T08:54:02.549Z,24.20
2023-01-17T08:56:30.020Z,25.57
2023-01-17T08:58:57.381Z,26.53
2023-01-17T09:01:24.996Z,23.33
2023-01-17T09:03:52.620Z,24.77
2023-01-17T09:06:20.310Z,24.43
2023-01-17T09:08:49.822Z,24.00
2023-01-17T09:11:18.130Z,24.50
2023-01-17T09:13:45.856Z,23.53
2023-01-17T09:16:13.457Z,24.17
2023-01-17T09:18:40.900Z,24.17
2023-01-17T09:21:12.758Z,23.30
2023-01-17T09:23:40.293Z,25.67
2023-01-17T09:26:07.778Z,23.90
2023-01-17T09:28:41.061Z,24.40
2023-01-17T09:31:09.026Z,24.13
2023-01-17T09:33:37.014Z,26.47
2023-01-17T09:36:05.690Z,24.57
2023-01-17T09:38:33.734Z,26.20
2023-01-17T09:41:02.609Z,26.27
2023-01-17T09:43:48.035Z,26.13
2023-01-17T09:46:22.814Z,24.35
2023-01-17T09:48:57.346Z,18.67
2023-01-17T09:51:24.976Z,25.75
2023-01-17T09:53:53.476Z,26.53
2023-01-17T09:56:24.329Z,25.80
2023-01-17T09:59:11.573Z,23.77
2023-01-17T10:01:44.471Z,26.77
2023-01-17T10:04:31.855Z,25.40
2023-01-17T10:07:19.156Z,25.63
2023-01-17T10:10:06.913Z,25.70
2023-01-17T10:12:38.133Z,24.30
2023-01-17T10:15:25.434Z,24.80
2023-01-17T10:17:57.984Z,24.63
2023-01-17T10:20:45.401Z,24.80
2023-01-17T10:23:33.296Z,26.40
2023-01-17T10:26:02.808Z,24.60
2023-01-17T10:28:51.376Z,25.33
2023-01-17T10:31:24.060Z,25.30
2023-01-17T10:34:11.335Z,25.33
2023-01-17T10:36:40.794Z,23.60
2023-01-17T10:39:20.551Z,22.37
2023-01-17T10:41:55.428Z,23.00
2023-01-17T10:44:33.202Z,23.90
2023-01-17T10:47:08.989Z,21.30
2023-01-17T10:49:38.948Z,21.63
2023-01-17T10:52:26.496Z,22.40
2023-01-17T10:55:06.135Z,22.20
2023-01-17T10:57:41.059Z,21.37
2023-01-17T11:00:23.658Z,21.52
2023-01-17T11:02:52.016Z,23.43
2023-01-17T11:05:22.514Z,25.03
2023-01-17T11:08:07.214Z,23.63
2023-01-17T11:10:54.486Z,22.83
2023-01-17T11:13:31.967Z,22.43
2023-01-17T11:16:02.523Z,24.47
2023-01-17T11:18:31.875Z,22.63
2023-01-17T11:21:19.126Z,21.93
2023-01-17T11:23:47.723Z,22.80
2023-01-17T11:26:33.067Z,21.37
2023-01-17T11:29:20.280Z,21.38
2023-01-17T11:31:47.920Z,20.77
2023-01-17T11:34:17.761Z,22.53
2023-01-17T11:36:45.336Z,22.13
2023-01-17T11:39:32.592Z,21.03
2023-01-17T11:42:00.081Z,18.63
2023-01-17T11:44:47.329Z,19.77
2023-01-17T11:47:34.623Z,19.63
2023-01-17T11:50:03.338Z,20.80
2023-01-17T11:52:36.669Z,20.07
2023-01-17T11:55:06.511Z,17.43
2023-01-17T11:57:36.126Z,20.30
2023-01-17T12:00:12.707Z,18.67
2023-01-17T12:02:59.966Z,19.73
2023-01-17T12:05:48.349Z,18.03
2023-01-17T12:08:35.580Z,18.90
2023-01-17T12:11:11.672Z,16.77
2023-01-17T12:14:02.620Z,17.27
2023-01-17T12:16:49.896Z,17.17
2023-01-17T12:19:38.390Z,17.57
2023-01-17T12:22:25.669Z,14.67
2023-01-17T12:25:15.075Z,16.03
2023-01-17T12:28:02.285Z,15.93
2023-01-17T12:30:44.253Z,16.47
2023-01-17T12:33:32.028Z,14.73
2023-01-17T12:36:04.034Z,15.27
2023-01-17T12:38:37.113Z,15.63
2023-01-17T12:41:26.502Z,14.87
2023-01-17T12:43:57.804Z,13.80
2023-01-17T12:46:45.141Z,15.00
2023-01-17T12:49:32.710Z,14.83
2023-01-17T12:52:08.666Z,14.37
2023-01-17T12:54:40.776Z,17.20
2023-01-17T12:57:28.473Z,17.67
2023-01-17T13:00:19.991Z,15.07
2023-01-17T13:02:52.262Z,17.27
2023-01-17T13:05:40.865Z,16.10
2023-01-17T13:08:28.145Z,16.93
2023-01-17T13:10:58.836Z,17.17
2023-01-17T13:13:27.800Z,16.50
2023-01-17T13:15:56.630Z,16.27
2023-01-17T13:18:29.855Z,15.87
2023-01-17T13:21:17.575Z,15.47
2023-01-17T13:24:06.668Z,14.70
2023-01-17T13:26:54.439Z,15.77
2023-01-17T13:29:42.085Z,14.40
2023-01-17T13:32:29.449Z,14.67
2023-01-17T13:35:16.716Z,13.43
2023-01-17T13:38:03.941Z,14.63
2023-01-17T13:40:51.258Z,13.27
2023-01-17T13:43:20.554Z,13.93
2023-01-17T13:46:04.312Z,14.57
2023-01-17T13:48:32.851Z,13.30
2023-01-17T13:51:09.790Z,12.97
2023-01-17T13:53:57.062Z,12.10
2023-01-17T13:56:32.620Z,11.67
2023-01-17T13:59:03.252Z,11.83
2023-01-17T14:01:50.678Z,11.37
2023-01-17T14:04:18.207Z,11.27
2023-01-17T14:06:49.187Z,11.10
2023-01-17T14:09:36.394Z,12.13
2023-01-17T14:12:24.746Z,10.67
2023-01-17T14:14:55.705Z,11.70
2023-01-17T14:17:43.001Z,11.73
2023-01-17T14:20:30.250Z,11.20
2023-01-17T14:22:59.368Z,11.53
2023-01-17T14:25:30.904Z,11.80
2023-01-17T14:28:00.840Z,11.70
2023-01-17T14:30:34.973Z,10.70
2023-01-17T14:33:22.244Z,11.70
2023-01-17T14:35:53.588Z,11.20
2023-01-17T14:38:40.926Z,11.57
2023-01-17T14:41:12.037Z,13.23
2023-01-17T14:43:41.908Z,11.63
2023-01-17T14:46:16.107Z,12.67
2023-01-17T14:48:43.590Z,11.33
2023-01-17T14:51:13.481Z,11.33
2023-01-17T14:53:40.835Z,11.87
2023-01-17T14:56:18.401Z,11.50
2023-01-17T14:58:46.904Z,10.93
2023-01-17T15:01:15.763Z,11.33
2023-01-17T15:03:45.338Z,9.27
2023-01-17T15:06:17.039Z,9.50
2023-01-17T15:08:44.679Z,10.17
2023-01-17T15:11:17.701Z,8.40
2023-01-17T15:13:49.708Z,9.27
2023-01-17T15:16:22.084Z,8.43
2023-01-17T15:18:49.711Z,8.70
2023-01-17T15:21:19.617Z,8.70
2023-01-17T15:23:49.821Z,8.60
2023-01-17T15:26:20.276Z,8.93
2023-01-17T15:28:47.976Z,10.80
2023-01-17T15:31:17.756Z,10.47
2023-01-17T15:33:47.186Z,10.03
2023-01-17T15:36:34.519Z,9.40
2023-01-17T15:39:03.570Z,10.50
2023-01-17T15:41:34.460Z,8.70
2023-01-17T15:44:02.559Z,9.17
2023-01-17T15:46:46.514Z,8.57
2023-01-17T15:49:33.742Z,7.80
2023-01-17T15:52:21.698Z,6.63
2023-01-17T15:54:52.954Z,6.60
2023-01-17T15:57:25.186Z,5.90
2023-01-17T16:00:14.799Z,7.23
2023-01-17T16:02:44.567Z,6.60
2023-01-17T16:05:33.056Z,6.53
2023-01-17T16:08:20.375Z,7.03
2023-01-17T16:10:47.688Z,6.73
2023-01-17T16:13:15.363Z,6.03
2023-01-17T16:15:42.842Z,6.13
2023-01-17T16:18:15.576Z,6.40
2023-01-17T16:20:47.623Z,7.27
2023-01-17T16:23:15.204Z,8.43
2023-01-17T16:25:44.483Z,7.70
2023-01-17T16:28:11.891Z,8.57
2023-01-17T16:30:39.495Z,8.40
2023-01-17T16:33:10.943Z,8.73
2023-01-17T16:35:39.687Z,8.17
2023-01-17T16:38:09.351Z,9.57
2023-01-17T16:40:41.284Z,8.63
2023-01-17T16:43:09.294Z,7.70
2023-01-17T16:45:40.945Z,7.70
2023-01-17T16:48:08.701Z,7.00
2023-01-17T16:50:36.210Z,8.33
2023-01-17T16:53:03.620Z,8.13
2023-01-17T16:55:31.060Z,8.17
2023-01-17T16:57:58.552Z,9.20
2023-01-17T17:00:27.051Z,8.17
2023-01-17T17:02:54.563Z,15.93
2023-01-17T17:05:22.015Z,8.83
2023-01-17T17:07:51.724Z,7.90
2023-01-17T17:10:20.256Z,8.50
2023-01-17T17:12:47.827Z,7.80
2023-01-17T17:15:15.220Z,10.33
2023-01-17T17:17:43.398Z,8.37
2023-01-17T17:20:12.787Z,9.10
2023-01-17T17:22:41.012Z,7.10
2023-01-17T17:25:08.671Z,7.70
2023-01-17T17:27:36.579Z,8.93
2023-01-17T17:30:04.221Z,8.17
2023-01-17T17:32:32.476Z,6.67
2023-01-17T17:34:59.910Z,7.23
2023-01-17T17:37:29.306Z,6.23
2023-01-17T17:39:57.230Z,6.90
2023-01-17T17:42:24.975Z,5.90
2023-01-17T17:44:52.547Z,6.80
2023-01-17T17:47:21.101Z,7.73
2023-01-17T17:49:48.584Z,6.47
2023-01-17T17:52:16.462Z,7.30
2023-01-17T17:54:44.805Z,8.43
2023-01-17T17:57:12.356Z,7.70
2023-01-17T17:59:39.991Z,8.07
2023-01-17T18:02:11.069Z,8.47
2023-01-17T18:04:41.921Z,8.83
2023-01-17T18:07:12.125Z,6.97
2023-01-17T18:09:39.737Z,6.10
2023-01-17T18:12:07.258Z,6.80
2023-01-17T18:14:34.842Z,6.00
2023-01-17T18:17:02.293Z,6.87
2023-01-17T18:19:29.938Z,6.43
2023-01-17T18:21:58.237Z,6.27
2023-01-17T18:24:25.925Z,6.47
2023-01-17T18:26:54.355Z,7.07
2023-01-17T18:29:22.413Z,6.23
2023-01-17T18:31:50.908Z,6.47
2023-01-17T18:34:21.356Z,6.37
2023-01-17T18:36:49.328Z,6.67
2023-01-17T18:39:18.716Z,6.93
2023-01-17T18:41:46.569Z,6.13
2023-01-17T18:44:13.994Z,7.80
2023-01-17T18:46:42.260Z,36.97
2023-01-17T18:49:12.267Z,36.33
2023-01-17T18:51:39.822Z,8.00
2023-01-17T18:54:09.082Z,8.23
2023-01-17T18:56:36.654Z,7.80
2023-01-17T18:59:06.390Z,7.47
2023-01-17T19:01:35.939Z,9.47
2023-01-17T19:04:04.657Z,8.50
2023-01-17T19:06:33.960Z,6.60
2023-01-17T19:09:01.768Z,7.23
2023-01-17T19:11:29.583Z,7.17
2023-01-17T19:13:57.288Z,6.30
2023-01-17T19:16:28.153Z,6.30
2023-01-17T19:18:56.429Z,6.80
2023-01-17T19:21:26.001Z,8.60
2023-01-17T19:23:53.790Z,6.73
2023-01-17T19:26:23.244Z,6.90
2023-01-17T19:28:51.047Z,5.83
2023-01-17T19:31:22.508Z,6.20
2023-01-17T19:34:03.196Z,5.87
2023-01-17T19:36:38.827Z,5.03
2023-01-17T19:39:11.028Z,4.40
2023-01-17T19:41:41.602Z,5.23
2023-01-17T19:44:10.584Z,5.43
2023-01-17T19:46:38.895Z,5.60
2023-01-17T19:49:08.202Z,5.47
2023-01-17T19:51:37.052Z,6.20
2023-01-17T19:54:07.084Z,6.20
2023-01-17T19:56:37.266Z,6.10
2023-01-17T19:59:05.031Z,5.63
2023-01-17T20:01:34.513Z,5.30
2023-01-17T20:04:03.295Z,4.70
2023-01-17T20:06:33.990Z,4.40
2023-01-17T20:09:02.423Z,4.77
2023-01-17T20:11:30.611Z,4.70
2023-01-17T20:13:59.417Z,5.13
2023-01-17T20:16:28.970Z,4.30
2023-01-17T20:18:57.295Z,5.43
2023-01-17T20:21:26.332Z,4.97
2023-01-17T20:23:54.925Z,4.40
2023-01-17T20:26:31.283Z,5.20
2023-01-17T20:28:59.793Z,4.60
2023-01-17T20:31:28.981Z,5.00
2023-01-17T20:33:57.697Z,6.10
2023-01-17T20:36:27.360Z,5.17
2023-01-17T20:38:55.154Z,6.50
2023-01-17T20:41:43.470Z,5.90
2023-01-17T20:44:13.231Z,5.27
2023-01-17T20:46:42.089Z,7.00
2023-01-17T20:49:15.920Z,5.70
2023-01-17T20:51:44.663Z,7.33
2023-01-17T20:54:15.993Z,6.43
2023-01-17T20:56:45.756Z,7.00
2023-01-17T20:59:15.278Z,7.40
2023-01-17T21:01:44.265Z,7.00
2023-01-17T21:04:44.443Z,7.50
2023-01-17T21:07:13.346Z,8.47
2023-01-17T21:09:43.588Z,7.20
2023-01-17T21:12:12.003Z,7.30
2023-01-17T21:14:42.275Z,7.07
2023-01-17T21:17:10.628Z,6.50
2023-01-17T21:19:38.519Z,6.77
2023-01-17T21:22:06.135Z,7.20
2023-01-17T21:24:33.989Z,7.67
2023-01-17T21:27:01.594Z,9.17
2023-01-17T21:29:31.981Z,8.40
2023-01-17T21:32:00.125Z,8.10
2023-01-17T21:34:28.343Z,7.77
2023-01-17T21:36:55.865Z,9.07
2023-01-17T21:39:23.758Z,9.53
2023-01-17T21:41:51.435Z,7.30
2023-01-17T21:44:23.643Z,8.40
2023-01-17T21:46:55.844Z,7.10
2023-01-17T21:49:25.379Z,9.03
2023-01-17T21:52:13.631Z,8.50
2023-01-17T21:55:03.316Z,9.23
2023-01-17T21:57:50.666Z,10.07
2023-01-17T22:00:18.514Z,8.70
2023-01-17T22:02:46.989Z,9.40
2023-01-17T22:05:16.707Z,8.00
2023-01-17T22:08:04.222Z,8.33
2023-01-17T22:10:46.320Z,8.60
2023-01-17T22:13:16.131Z,7.63
2023-01-17T22:15:43.908Z,8.80
2023-01-17T22:18:11.686Z,8.33
2023-01-17T22:20:42.970Z,8.60
2023-01-17T22:23:10.986Z,8.13
2023-01-17T22:25:38.418Z,8.73
2023-01-17T22:28:05.870Z,7.40
2023-01-17T22:30:33.280Z,8.50
2023-01-17T22:33:01.097Z,8.37
2023-01-17T22:35:28.714Z,8.67
2023-01-17T22:37:56.177Z,7.67
2023-01-17T22:40:23.716Z,8.47
2023-01-17T22:42:51.015Z,9.40
2023-01-17T22:45:19.516Z,8.57
2023-01-17T22:47:46.879Z,8.37
2023-01-17T22:50:14.321Z,7.63
2023-01-17T22:52:42.153Z,7.47
2023-01-17T22:55:10.120Z,8.10
2023-01-17T22:57:37.640Z,8.97
2023-01-17T23:00:14.573Z,7.03
2023-01-17T23:02:42.778Z,8.07
2023-01-17T23:05:10.453Z,7.50
2023-01-17T23:07:43.837Z,7.43
2023-01-17T23:10:12.653Z,8.93
2023-01-17T23:12:40.293Z,10.37
2023-01-17T23:15:27.792Z,8.73
2023-01-17T23:18:15.261Z,9.93
2023-01-17T23:20:42.681Z,9.23
2023-01-17T23:23:11.192Z,9.87
2023-01-17T23:25:39.096Z,9.23
2023-01-17T23:28:20.680Z,10.57
2023-01-17T23:30:50.044Z,9.73
2023-01-17T23:33:18.131Z,9.20
2023-01-17T23:35:46.456Z,9.10
2023-01-17T23:38:30.792Z,10.43
2023-01-17T23:41:38.224Z,10.47
2023-01-17T23:44:05.677Z,10.70
2023-01-17T23:46:33.187Z,13.03
2023-01-17T23:49:00.542Z,12.57
2023-01-17T23:51:27.919Z,11.43
2023-01-17T23:54:05.352Z,11.10
2023-01-17T23:56:33.140Z,10.13
2023-01-17T23:59:01.269Z,9.20
